sensor_id;sensor_type;location;lat;lon;timestamp;P1;durP1;ratioP1;P2;durP2;ratioP2
8737;SDS011;4405;49.272;8.590;2024-02-04T00:01:55;3.07;;;2.97;;
8737;SDS011;4405;49.272;8.590;2024-02-04T00:04:21;3.27;;;3.07;;
8737;SDS011;4405;49.272;8.590;2024-02-04T00:06:48;3.83;;;3.37;;
8737;SDS011;4405;49.272;8.590;2024-02-04T00:09:14;3.70;;;3.50;;
8737;SDS011;4405;49.272;8.590;2024-02-04T00:11:41;3.70;;;3.40;;
8737;SDS011;4405;49.272;8.590;2024-02-04T00:14:07;3.30;;;3.10;;
8737;SDS011;4405;49.272;8.590;2024-02-04T00:16:34;3.57;;;3.37;;
8737;SDS011;4405;49.272;8.590;2024-02-04T00:19:01;5.00;;;3.77;;
8737;SDS011;4405;49.272;8.590;2024-02-04T00:21:27;3.57;;;3.27;;
8737;SDS011;4405;49.272;8.590;2024-02-04T00:23:54;3.67;;;3.37;;
8737;SDS011;4405;49.272;8.590;2024-02-04T00:26:20;3.70;;;3.50;;
8737;SDS011;4405;49.272;8.590;2024-02-04T00:28:46;4.00;;;3.70;;
8737;SDS011;4405;49.272;8.590;2024-02-04T00:31:12;3.57;;;3.33;;
8737;SDS011;4405;49.272;8.590;2024-02-04T00:33:39;4.33;;;3.93;;
8737;SDS011;4405;49.272;8.590;2024-02-04T00:36:07;3.43;;;3.30;;
8737;SDS011;4405;49.272;8.590;2024-02-04T00:38:33;3.60;;;3.30;;
8737;SDS011;4405;49.272;8.590;2024-02-04T00:40:59;4.63;;;3.83;;
8737;SDS011;4405;49.272;8.590;2024-02-04T00:43:25;3.70;;;3.50;;
8737;SDS011;4405;49.272;8.590;2024-02-04T00:45:52;4.40;;;3.63;;
8737;SDS011;4405;49.272;8.590;2024-02-04T00:48:19;3.73;;;3.43;;
8737;SDS011;4405;49.272;8.590;2024-02-04T00:50:46;4.27;;;3.87;;
8737;SDS011;4405;49.272;8.590;2024-02-04T00:53:14;4.53;;;4.17;;
8737;SDS011;4405;49.272;8.590;2024-02-04T00:55:41;3.53;;;3.33;;
8737;SDS011;4405;49.272;8.590;2024-02-04T00:58:07;4.00;;;3.67;;
8737;SDS011;4405;49.272;8.590;2024-02-04T01:00:33;3.87;;;3.53;;
8737;SDS011;4405;49.272;8.590;2024-02-04T01:02:59;3.70;;;3.50;;
8737;SDS011;4405;49.272;8.590;2024-02-04T01:05:25;4.40;;;4.10;;
8737;SDS011;4405;49.272;8.590;2024-02-04T01:07:52;4.17;;;3.87;;
8737;SDS011;4405;49.272;8.590;2024-02-04T01:10:19;4.17;;;3.93;;
8737;SDS011;4405;49.272;8.590;2024-02-04T01:12:45;4.23;;;3.93;;
8737;SDS011;4405;49.272;8.590;2024-02-04T01:15:12;4.23;;;3.93;;
8737;SDS011;4405;49.272;8.590;2024-02-04T01:17:38;4.97;;;4.60;;
8737;SDS011;4405;49.272;8.590;2024-02-04T01:20:04;4.87;;;4.27;;
8737;SDS011;4405;49.272;8.590;2024-02-04T01:22:31;4.57;;;4.27;;
8737;SDS011;4405;49.272;8.590;2024-02-04T01:24:57;4.60;;;4.17;;
8737;SDS011;4405;49.272;8.590;2024-02-04T01:27:25;4.70;;;4.40;;
8737;SDS011;4405;49.272;8.590;2024-02-04T01:29:51;4.47;;;4.07;;
8737;SDS011;4405;49.272;8.590;2024-02-04T01:32:18;6.37;;;4.80;;
8737;SDS011;4405;49.272;8.590;2024-02-04T01:34:44;4.47;;;4.17;;
8737;SDS011;4405;49.272;8.590;2024-02-04T01:37:11;5.50;;;4.00;;
8737;SDS011;4405;49.272;8.590;2024-02-04T01:39:37;4.17;;;3.90;;
8737;SDS011;4405;49.272;8.590;2024-02-04T01:42:03;4.80;;;4.40;;
8737;SDS011;4405;49.272;8.590;2024-02-04T01:44:31;4.37;;;4.07;;
8737;SDS011;4405;49.272;8.590;2024-02-04T01:46:58;4.20;;;3.90;;
8737;SDS011;4405;49.272;8.590;2024-02-04T01:49:24;4.27;;;3.70;;
8737;SDS011;4405;49.272;8.590;2024-02-04T01:51:50;4.57;;;4.17;;
8737;SDS011;4405;49.272;8.590;2024-02-04T01:54:17;4.30;;;3.87;;
8737;SDS011;4405;49.272;8.590;2024-02-04T01:56:45;4.20;;;3.90;;
8737;SDS011;4405;49.272;8.590;2024-02-04T01:59:11;5.77;;;4.70;;
8737;SDS011;4405;49.272;8.590;2024-02-04T02:01:40;4.43;;;4.13;;
8737;SDS011;4405;49.272;8.590;2024-02-04T02:04:06;4.40;;;4.00;;
8737;SDS011;4405;49.272;8.590;2024-02-04T02:06:32;4.27;;;4.00;;
8737;SDS011;4405;49.272;8.590;2024-02-04T02:09:00;4.03;;;3.47;;
8737;SDS011;4405;49.272;8.590;2024-02-04T02:11:31;4.27;;;3.87;;
8737;SDS011;4405;49.272;8.590;2024-02-04T02:14:02;4.00;;;3.70;;
8737;SDS011;4405;49.272;8.590;2024-02-04T02:16:29;4.30;;;4.00;;
8737;SDS011;4405;49.272;8.590;2024-02-04T02:19:00;4.50;;;4.10;;
8737;SDS011;4405;49.272;8.590;2024-02-04T02:21:38;4.10;;;3.80;;
8737;SDS011;4405;49.272;8.590;2024-02-04T02:24:10;4.10;;;3.80;;
8737;SDS011;4405;49.272;8.590;2024-02-04T02:26:38;4.60;;;3.77;;
8737;SDS011;4405;49.272;8.590;2024-02-04T02:29:04;4.00;;;3.80;;
8737;SDS011;4405;49.272;8.590;2024-02-04T02:31:33;4.07;;;3.77;;
8737;SDS011;4405;49.272;8.590;2024-02-04T02:33:59;3.53;;;3.33;;
8737;SDS011;4405;49.272;8.590;2024-02-04T02:36:25;3.93;;;3.70;;
8737;SDS011;4405;49.272;8.590;2024-02-04T02:38:56;3.80;;;3.60;;
8737;SDS011;4405;49.272;8.590;2024-02-04T02:41:24;3.90;;;3.60;;
8737;SDS011;4405;49.272;8.590;2024-02-04T02:43:55;3.67;;;3.43;;
8737;SDS011;4405;49.272;8.590;2024-02-04T02:46:22;3.70;;;3.40;;
8737;SDS011;4405;49.272;8.590;2024-02-04T02:48:49;3.80;;;3.60;;
8737;SDS011;4405;49.272;8.590;2024-02-04T02:51:15;3.63;;;3.33;;
8737;SDS011;4405;49.272;8.590;2024-02-04T02:53:42;3.27;;;3.07;;
8737;SDS011;4405;49.272;8.590;2024-02-04T02:56:08;3.63;;;3.30;;
8737;SDS011;4405;49.272;8.590;2024-02-04T02:58:34;3.33;;;3.17;;
8737;SDS011;4405;49.272;8.590;2024-02-04T03:01:02;3.70;;;3.40;;
8737;SDS011;4405;49.272;8.590;2024-02-04T03:03:28;4.80;;;3.30;;
8737;SDS011;4405;49.272;8.590;2024-02-04T03:05:54;4.10;;;3.60;;
8737;SDS011;4405;49.272;8.590;2024-02-04T03:08:20;3.00;;;2.80;;
8737;SDS011;4405;49.272;8.590;2024-02-04T03:10:47;3.50;;;3.20;;
8737;SDS011;4405;49.272;8.590;2024-02-04T03:13:13;3.57;;;3.27;;
8737;SDS011;4405;49.272;8.590;2024-02-04T03:15:39;3.97;;;3.33;;
8737;SDS011;4405;49.272;8.590;2024-02-04T03:18:08;3.73;;;3.43;;
8737;SDS011;4405;49.272;8.590;2024-02-04T03:20:35;3.17;;;2.97;;
8737;SDS011;4405;49.272;8.590;2024-02-04T03:23:01;3.57;;;3.37;;
8737;SDS011;4405;49.272;8.590;2024-02-04T03:25:27;3.50;;;3.20;;
8737;SDS011;4405;49.272;8.590;2024-02-04T03:27:54;3.63;;;3.33;;
8737;SDS011;4405;49.272;8.590;2024-02-04T03:30:20;3.37;;;3.10;;
8737;SDS011;4405;49.272;8.590;2024-02-04T03:32:46;3.13;;;2.93;;
8737;SDS011;4405;49.272;8.590;2024-02-04T03:35:14;3.00;;;2.90;;
8737;SDS011;4405;49.272;8.590;2024-02-04T03:37:40;3.10;;;2.90;;
8737;SDS011;4405;49.272;8.590;2024-02-04T03:40:07;2.77;;;2.67;;
8737;SDS011;4405;49.272;8.590;2024-02-04T03:42:33;2.60;;;2.50;;
8737;SDS011;4405;49.272;8.590;2024-02-04T03:44:59;2.60;;;2.40;;
8737;SDS011;4405;49.272;8.590;2024-02-04T03:47:26;2.63;;;2.43;;
8737;SDS011;4405;49.272;8.590;2024-02-04T03:49:52;2.30;;;2.20;;
8737;SDS011;4405;49.272;8.590;2024-02-04T03:52:20;2.40;;;2.30;;
8737;SDS011;4405;49.272;8.590;2024-02-04T03:54:46;2.50;;;2.33;;
8737;SDS011;4405;49.272;8.590;2024-02-04T03:57:12;3.30;;;2.30;;
8737;SDS011;4405;49.272;8.590;2024-02-04T03:59:39;2.23;;;2.13;;
8737;SDS011;4405;49.272;8.590;2024-02-04T04:02:05;1.90;;;1.80;;
8737;SDS011;4405;49.272;8.590;2024-02-04T04:04:31;2.23;;;2.13;;
8737;SDS011;4405;49.272;8.590;2024-02-04T04:06:57;1.87;;;1.77;;
8737;SDS011;4405;49.272;8.590;2024-02-04T04:09:25;2.03;;;1.93;;
8737;SDS011;4405;49.272;8.590;2024-02-04T04:11:51;1.60;;;1.60;;
8737;SDS011;4405;49.272;8.590;2024-02-04T04:14:17;1.50;;;1.50;;
8737;SDS011;4405;49.272;8.590;2024-02-04T04:16:44;1.80;;;1.70;;
8737;SDS011;4405;49.272;8.590;2024-02-04T04:19:10;1.67;;;1.67;;
8737;SDS011;4405;49.272;8.590;2024-02-04T04:21:37;1.70;;;1.60;;
8737;SDS011;4405;49.272;8.590;2024-02-04T04:24:02;2.00;;;1.90;;
8737;SDS011;4405;49.272;8.590;2024-02-04T04:26:30;1.70;;;1.63;;
8737;SDS011;4405;49.272;8.590;2024-02-04T04:28:56;1.80;;;1.70;;
8737;SDS011;4405;49.272;8.590;2024-02-04T04:31:22;1.70;;;1.70;;
8737;SDS011;4405;49.272;8.590;2024-02-04T04:33:49;1.60;;;1.60;;
8737;SDS011;4405;49.272;8.590;2024-02-04T04:36:17;2.37;;;1.77;;
8737;SDS011;4405;49.272;8.590;2024-02-04T04:38:43;1.83;;;1.73;;
8737;SDS011;4405;49.272;8.590;2024-02-04T04:41:09;1.70;;;1.60;;
8737;SDS011;4405;49.272;8.590;2024-02-04T04:43:37;1.70;;;1.70;;
8737;SDS011;4405;49.272;8.590;2024-02-04T04:46:04;1.43;;;1.43;;
8737;SDS011;4405;49.272;8.590;2024-02-04T04:48:30;1.43;;;1.40;;
8737;SDS011;4405;49.272;8.590;2024-02-04T04:50:56;1.70;;;1.70;;
8737;SDS011;4405;49.272;8.590;2024-02-04T04:53:22;1.70;;;1.60;;
8737;SDS011;4405;49.272;8.590;2024-02-04T04:55:48;1.60;;;1.50;;
8737;SDS011;4405;49.272;8.590;2024-02-04T04:58:15;1.40;;;1.40;;
8737;SDS011;4405;49.272;8.590;2024-02-04T05:00:42;1.70;;;1.60;;
8737;SDS011;4405;49.272;8.590;2024-02-04T05:03:08;1.50;;;1.40;;
8737;SDS011;4405;49.272;8.590;2024-02-04T05:05:35;1.60;;;1.50;;
8737;SDS011;4405;49.272;8.590;2024-02-04T05:08:01;1.50;;;1.40;;
8737;SDS011;4405;49.272;8.590;2024-02-04T05:10:27;1.53;;;1.53;;
8737;SDS011;4405;49.272;8.590;2024-02-04T05:12:53;1.60;;;1.50;;
8737;SDS011;4405;49.272;8.590;2024-02-04T05:15:19;1.50;;;1.50;;
8737;SDS011;4405;49.272;8.590;2024-02-04T05:17:47;1.70;;;1.60;;
8737;SDS011;4405;49.272;8.590;2024-02-04T05:20:14;1.37;;;1.37;;
8737;SDS011;4405;49.272;8.590;2024-02-04T05:22:40;1.60;;;1.50;;
8737;SDS011;4405;49.272;8.590;2024-02-04T05:25:06;1.57;;;1.57;;
8737;SDS011;4405;49.272;8.590;2024-02-04T05:27:34;1.50;;;1.50;;
8737;SDS011;4405;49.272;8.590;2024-02-04T05:30:01;1.80;;;1.80;;
8737;SDS011;4405;49.272;8.590;2024-02-04T05:32:28;1.70;;;1.70;;
8737;SDS011;4405;49.272;8.590;2024-02-04T05:34:55;2.57;;;2.37;;
8737;SDS011;4405;49.272;8.590;2024-02-04T05:37:21;1.80;;;1.80;;
8737;SDS011;4405;49.272;8.590;2024-02-04T05:39:48;2.23;;;1.87;;
8737;SDS011;4405;49.272;8.590;2024-02-04T05:42:14;1.80;;;1.70;;
8737;SDS011;4405;49.272;8.590;2024-02-04T05:44:40;1.90;;;1.90;;
8737;SDS011;4405;49.272;8.590;2024-02-04T05:47:06;2.00;;;1.90;;
8737;SDS011;4405;49.272;8.590;2024-02-04T05:49:33;1.97;;;1.87;;
8737;SDS011;4405;49.272;8.590;2024-02-04T05:52:00;2.20;;;2.00;;
8737;SDS011;4405;49.272;8.590;2024-02-04T05:54:26;1.87;;;1.77;;
8737;SDS011;4405;49.272;8.590;2024-02-04T05:56:53;2.20;;;2.10;;
8737;SDS011;4405;49.272;8.590;2024-02-04T05:59:19;1.93;;;1.83;;
8737;SDS011;4405;49.272;8.590;2024-02-04T06:01:45;2.40;;;2.30;;
8737;SDS011;4405;49.272;8.590;2024-02-04T06:04:11;2.20;;;2.10;;
8737;SDS011;4405;49.272;8.590;2024-02-04T06:06:37;2.30;;;2.20;;
8737;SDS011;4405;49.272;8.590;2024-02-04T06:09:05;2.10;;;2.00;;
8737;SDS011;4405;49.272;8.590;2024-02-04T06:11:33;1.80;;;1.70;;
8737;SDS011;4405;49.272;8.590;2024-02-04T06:13:58;2.20;;;2.10;;
8737;SDS011;4405;49.272;8.590;2024-02-04T06:16:25;1.97;;;1.90;;
8737;SDS011;4405;49.272;8.590;2024-02-04T06:18:52;2.10;;;2.00;;
8737;SDS011;4405;49.272;8.590;2024-02-04T06:21:20;1.70;;;1.60;;
8737;SDS011;4405;49.272;8.590;2024-02-04T06:23:46;3.63;;;2.57;;
8737;SDS011;4405;49.272;8.590;2024-02-04T06:26:14;1.87;;;1.73;;
8737;SDS011;4405;49.272;8.590;2024-02-04T06:28:40;2.00;;;1.90;;
8737;SDS011;4405;49.272;8.590;2024-02-04T06:31:10;1.90;;;1.80;;
8737;SDS011;4405;49.272;8.590;2024-02-04T06:33:36;1.87;;;1.77;;
8737;SDS011;4405;49.272;8.590;2024-02-04T06:36:02;1.90;;;1.80;;
8737;SDS011;4405;49.272;8.590;2024-02-04T06:38:28;2.37;;;2.00;;
8737;SDS011;4405;49.272;8.590;2024-02-04T06:40:55;1.80;;;1.80;;
8737;SDS011;4405;49.272;8.590;2024-02-04T06:43:22;2.50;;;1.97;;
8737;SDS011;4405;49.272;8.590;2024-02-04T06:45:48;2.13;;;2.03;;
8737;SDS011;4405;49.272;8.590;2024-02-04T06:48:14;2.03;;;1.93;;
8737;SDS011;4405;49.272;8.590;2024-02-04T06:50:40;1.93;;;1.83;;
8737;SDS011;4405;49.272;8.590;2024-02-04T06:53:08;2.37;;;1.97;;
8737;SDS011;4405;49.272;8.590;2024-02-04T06:55:34;2.20;;;2.00;;
8737;SDS011;4405;49.272;8.590;2024-02-04T06:58:01;2.03;;;1.93;;
8737;SDS011;4405;49.272;8.590;2024-02-04T07:00:28;2.13;;;1.90;;
8737;SDS011;4405;49.272;8.590;2024-02-04T07:02:55;2.97;;;1.90;;
8737;SDS011;4405;49.272;8.590;2024-02-04T07:05:21;1.90;;;1.90;;
8737;SDS011;4405;49.272;8.590;2024-02-04T07:07:48;1.87;;;1.87;;
8737;SDS011;4405;49.272;8.590;2024-02-04T07:10:14;2.03;;;1.83;;
8737;SDS011;4405;49.272;8.590;2024-02-04T07:12:41;2.10;;;2.00;;
8737;SDS011;4405;49.272;8.590;2024-02-04T07:15:07;2.33;;;2.13;;
8737;SDS011;4405;49.272;8.590;2024-02-04T07:17:35;1.87;;;1.77;;
8737;SDS011;4405;49.272;8.590;2024-02-04T07:20:01;2.10;;;2.00;;
8737;SDS011;4405;49.272;8.590;2024-02-04T07:22:27;2.30;;;2.20;;
8737;SDS011;4405;49.272;8.590;2024-02-04T07:24:54;2.20;;;2.10;;
8737;SDS011;4405;49.272;8.590;2024-02-04T07:27:20;2.13;;;2.00;;
8737;SDS011;4405;49.272;8.590;2024-02-04T07:29:46;2.33;;;2.23;;
8737;SDS011;4405;49.272;8.590;2024-02-04T07:32:12;2.57;;;2.47;;
8737;SDS011;4405;49.272;8.590;2024-02-04T07:34:41;2.70;;;2.50;;
8737;SDS011;4405;49.272;8.590;2024-02-04T07:37:07;2.80;;;2.60;;
8737;SDS011;4405;49.272;8.590;2024-02-04T07:39:33;2.43;;;2.33;;
8737;SDS011;4405;49.272;8.590;2024-02-04T07:41:59;2.93;;;2.73;;
8737;SDS011;4405;49.272;8.590;2024-02-04T07:44:26;2.20;;;2.10;;
8737;SDS011;4405;49.272;8.590;2024-02-04T07:46:53;2.73;;;2.53;;
8737;SDS011;4405;49.272;8.590;2024-02-04T07:49:19;2.30;;;2.17;;
8737;SDS011;4405;49.272;8.590;2024-02-04T07:51:46;2.40;;;2.20;;
8737;SDS011;4405;49.272;8.590;2024-02-04T07:54:13;2.03;;;1.93;;
8737;SDS011;4405;49.272;8.590;2024-02-04T07:56:39;2.37;;;2.27;;
8737;SDS011;4405;49.272;8.590;2024-02-04T07:59:05;2.00;;;1.90;;
8737;SDS011;4405;49.272;8.590;2024-02-04T08:01:31;2.70;;;2.00;;
8737;SDS011;4405;49.272;8.590;2024-02-04T08:03:58;2.53;;;1.93;;
8737;SDS011;4405;49.272;8.590;2024-02-04T08:06:24;2.33;;;1.80;;
8737;SDS011;4405;49.272;8.590;2024-02-04T08:08:52;2.20;;;2.10;;
8737;SDS011;4405;49.272;8.590;2024-02-04T08:11:18;2.00;;;1.90;;
8737;SDS011;4405;49.272;8.590;2024-02-04T08:13:44;2.00;;;1.90;;
8737;SDS011;4405;49.272;8.590;2024-02-04T08:16:11;2.10;;;2.00;;
8737;SDS011;4405;49.272;8.590;2024-02-04T08:18:37;2.60;;;1.87;;
8737;SDS011;4405;49.272;8.590;2024-02-04T08:21:04;1.90;;;1.80;;
8737;SDS011;4405;49.272;8.590;2024-02-04T08:23:30;3.50;;;1.83;;
8737;SDS011;4405;49.272;8.590;2024-02-04T08:25:58;1.70;;;1.60;;
8737;SDS011;4405;49.272;8.590;2024-02-04T08:28:25;1.80;;;1.70;;
8737;SDS011;4405;49.272;8.590;2024-02-04T08:30:51;1.80;;;1.70;;
8737;SDS011;4405;49.272;8.590;2024-02-04T08:33:17;1.83;;;1.80;;
8737;SDS011;4405;49.272;8.590;2024-02-04T08:35:43;1.80;;;1.70;;
8737;SDS011;4405;49.272;8.590;2024-02-04T08:38:10;1.53;;;1.53;;
8737;SDS011;4405;49.272;8.590;2024-02-04T08:40:36;1.57;;;1.47;;
8737;SDS011;4405;49.272;8.590;2024-02-04T08:43:04;1.80;;;1.70;;
8737;SDS011;4405;49.272;8.590;2024-02-04T08:45:30;2.00;;;1.90;;
8737;SDS011;4405;49.272;8.590;2024-02-04T08:47:56;1.77;;;1.70;;
8737;SDS011;4405;49.272;8.590;2024-02-04T08:50:22;2.00;;;1.90;;
8737;SDS011;4405;49.272;8.590;2024-02-04T08:52:48;1.50;;;1.50;;
8737;SDS011;4405;49.272;8.590;2024-02-04T08:55:15;1.50;;;1.50;;
8737;SDS011;4405;49.272;8.590;2024-02-04T08:57:41;1.37;;;1.37;;
8737;SDS011;4405;49.272;8.590;2024-02-04T09:00:09;1.60;;;1.60;;
8737;SDS011;4405;49.272;8.590;2024-02-04T09:02:36;1.93;;;1.80;;
8737;SDS011;4405;49.272;8.590;2024-02-04T09:05:03;5.47;;;4.93;;
8737;SDS011;4405;49.272;8.590;2024-02-04T09:07:29;1.80;;;1.70;;
8737;SDS011;4405;49.272;8.590;2024-02-04T09:09:56;1.87;;;1.77;;
8737;SDS011;4405;49.272;8.590;2024-02-04T09:12:22;1.77;;;1.60;;
8737;SDS011;4405;49.272;8.590;2024-02-04T09:14:49;2.90;;;1.90;;
8737;SDS011;4405;49.272;8.590;2024-02-04T09:17:16;1.87;;;1.80;;
8737;SDS011;4405;49.272;8.590;2024-02-04T09:19:42;1.97;;;1.87;;
8737;SDS011;4405;49.272;8.590;2024-02-04T09:22:09;1.97;;;1.83;;
8737;SDS011;4405;49.272;8.590;2024-02-04T09:24:35;1.40;;;1.40;;
8737;SDS011;4405;49.272;8.590;2024-02-04T09:27:01;1.60;;;1.50;;
8737;SDS011;4405;49.272;8.590;2024-02-04T09:29:27;1.60;;;1.50;;
8737;SDS011;4405;49.272;8.590;2024-02-04T09:31:53;1.30;;;1.30;;
8737;SDS011;4405;49.272;8.590;2024-02-04T09:34:21;1.57;;;1.47;;
8737;SDS011;4405;49.272;8.590;2024-02-04T09:36:47;1.30;;;1.20;;
8737;SDS011;4405;49.272;8.590;2024-02-04T09:39:14;1.53;;;1.30;;
8737;SDS011;4405;49.272;8.590;2024-02-04T09:41:40;1.20;;;1.20;;
8737;SDS011;4405;49.272;8.590;2024-02-04T09:44:06;1.50;;;1.50;;
8737;SDS011;4405;49.272;8.590;2024-02-04T09:46:33;1.47;;;1.40;;
8737;SDS011;4405;49.272;8.590;2024-02-04T09:49:00;1.30;;;1.30;;
8737;SDS011;4405;49.272;8.590;2024-02-04T09:51:29;1.90;;;1.60;;
8737;SDS011;4405;49.272;8.590;2024-02-04T09:53:56;1.27;;;1.27;;
8737;SDS011;4405;49.272;8.590;2024-02-04T09:56:24;1.10;;;1.10;;
8737;SDS011;4405;49.272;8.590;2024-02-04T09:58:51;1.23;;;1.23;;
8737;SDS011;4405;49.272;8.590;2024-02-04T10:01:18;1.10;;;1.10;;
8737;SDS011;4405;49.272;8.590;2024-02-04T10:03:47;1.03;;;1.03;;
8737;SDS011;4405;49.272;8.590;2024-02-04T10:06:15;1.43;;;1.20;;
8737;SDS011;4405;49.272;8.590;2024-02-04T10:08:49;0.90;;;0.90;;
8737;SDS011;4405;49.272;8.590;2024-02-04T10:11:15;1.00;;;1.00;;
8737;SDS011;4405;49.272;8.590;2024-02-04T10:13:42;0.97;;;0.97;;
8737;SDS011;4405;49.272;8.590;2024-02-04T10:16:08;0.90;;;0.90;;
8737;SDS011;4405;49.272;8.590;2024-02-04T10:18:34;1.50;;;1.10;;
8737;SDS011;4405;49.272;8.590;2024-02-04T10:21:01;1.10;;;1.10;;
8737;SDS011;4405;49.272;8.590;2024-02-04T10:23:27;1.10;;;1.10;;
8737;SDS011;4405;49.272;8.590;2024-02-04T10:25:58;1.77;;;1.10;;
8737;SDS011;4405;49.272;8.590;2024-02-04T10:28:24;1.17;;;1.00;;
8737;SDS011;4405;49.272;8.590;2024-02-04T10:30:50;1.40;;;1.40;;
8737;SDS011;4405;49.272;8.590;2024-02-04T10:33:17;1.23;;;1.20;;
8737;SDS011;4405;49.272;8.590;2024-02-04T10:35:43;1.17;;;1.10;;
8737;SDS011;4405;49.272;8.590;2024-02-04T10:38:09;1.13;;;1.13;;
8737;SDS011;4405;49.272;8.590;2024-02-04T10:40:36;1.00;;;1.00;;
8737;SDS011;4405;49.272;8.590;2024-02-04T10:43:04;1.10;;;1.10;;
8737;SDS011;4405;49.272;8.590;2024-02-04T10:45:32;0.90;;;0.90;;
8737;SDS011;4405;49.272;8.590;2024-02-04T10:47:58;3.47;;;1.07;;
8737;SDS011;4405;49.272;8.590;2024-02-04T10:50:26;1.00;;;1.00;;
8737;SDS011;4405;49.272;8.590;2024-02-04T10:52:54;1.20;;;1.20;;
8737;SDS011;4405;49.272;8.590;2024-02-04T10:55:24;0.80;;;0.80;;
8737;SDS011;4405;49.272;8.590;2024-02-04T10:57:52;0.70;;;0.70;;
8737;SDS011;4405;49.272;8.590;2024-02-04T11:00:20;0.90;;;0.90;;
8737;SDS011;4405;49.272;8.590;2024-02-04T11:02:46;0.80;;;0.80;;
8737;SDS011;4405;49.272;8.590;2024-02-04T11:05:14;0.80;;;0.80;;
8737;SDS011;4405;49.272;8.590;2024-02-04T11:07:42;0.70;;;0.70;;
8737;SDS011;4405;49.272;8.590;2024-02-04T11:10:09;0.70;;;0.70;;
8737;SDS011;4405;49.272;8.590;2024-02-04T11:12:36;0.63;;;0.63;;
8737;SDS011;4405;49.272;8.590;2024-02-04T11:15:04;0.70;;;0.70;;
8737;SDS011;4405;49.272;8.590;2024-02-04T11:17:38;0.60;;;0.60;;
8737;SDS011;4405;49.272;8.590;2024-02-04T11:20:12;0.80;;;0.80;;
8737;SDS011;4405;49.272;8.590;2024-02-04T11:22:47;0.60;;;0.60;;
8737;SDS011;4405;49.272;8.590;2024-02-04T11:25:21;0.73;;;0.73;;
8737;SDS011;4405;49.272;8.590;2024-02-04T11:27:53;0.80;;;0.80;;
8737;SDS011;4405;49.272;8.590;2024-02-04T11:30:19;0.73;;;0.73;;
8737;SDS011;4405;49.272;8.590;2024-02-04T11:32:47;0.63;;;0.63;;
8737;SDS011;4405;49.272;8.590;2024-02-04T11:35:13;0.70;;;0.70;;
8737;SDS011;4405;49.272;8.590;2024-02-04T11:37:39;0.77;;;0.77;;
8737;SDS011;4405;49.272;8.590;2024-02-04T11:40:07;0.77;;;0.77;;
8737;SDS011;4405;49.272;8.590;2024-02-04T11:42:33;0.60;;;0.60;;
8737;SDS011;4405;49.272;8.590;2024-02-04T11:45:08;0.80;;;0.80;;
8737;SDS011;4405;49.272;8.590;2024-02-04T11:47:36;0.90;;;0.90;;
8737;SDS011;4405;49.272;8.590;2024-02-04T11:50:04;0.80;;;0.80;;
8737;SDS011;4405;49.272;8.590;2024-02-04T11:52:31;0.70;;;0.70;;
8737;SDS011;4405;49.272;8.590;2024-02-04T11:54:57;0.70;;;0.70;;
8737;SDS011;4405;49.272;8.590;2024-02-04T11:57:23;1.00;;;0.97;;
8737;SDS011;4405;49.272;8.590;2024-02-04T11:59:50;1.00;;;1.00;;
8737;SDS011;4405;49.272;8.590;2024-02-04T12:02:17;0.70;;;0.70;;
8737;SDS011;4405;49.272;8.590;2024-02-04T12:07:11;1.30;;;0.80;;
8737;SDS011;4405;49.272;8.590;2024-02-04T12:09:39;0.90;;;0.90;;
8737;SDS011;4405;49.272;8.590;2024-02-04T12:12:06;0.80;;;0.80;;
8737;SDS011;4405;49.272;8.590;2024-02-04T12:14:33;1.03;;;1.03;;
8737;SDS011;4405;49.272;8.590;2024-02-04T12:17:05;0.90;;;0.90;;
8737;SDS011;4405;49.272;8.590;2024-02-04T12:19:31;1.10;;;1.10;;
8737;SDS011;4405;49.272;8.590;2024-02-04T12:21:58;0.90;;;0.90;;
8737;SDS011;4405;49.272;8.590;2024-02-04T12:24:25;0.73;;;0.73;;
8737;SDS011;4405;49.272;8.590;2024-02-04T12:26:52;0.60;;;0.60;;
8737;SDS011;4405;49.272;8.590;2024-02-04T12:29:18;1.20;;;0.80;;
8737;SDS011;4405;49.272;8.590;2024-02-04T12:31:44;0.80;;;0.80;;
8737;SDS011;4405;49.272;8.590;2024-02-04T12:34:12;3.87;;;0.70;;
8737;SDS011;4405;49.272;8.590;2024-02-04T12:36:39;0.97;;;0.90;;
8737;SDS011;4405;49.272;8.590;2024-02-04T12:39:05;0.97;;;0.70;;
8737;SDS011;4405;49.272;8.590;2024-02-04T12:41:36;0.83;;;0.80;;
8737;SDS011;4405;49.272;8.590;2024-02-04T12:44:02;0.80;;;0.80;;
8737;SDS011;4405;49.272;8.590;2024-02-04T12:46:30;0.80;;;0.80;;
8737;SDS011;4405;49.272;8.590;2024-02-04T12:48:57;0.90;;;0.90;;
8737;SDS011;4405;49.272;8.590;2024-02-04T12:51:23;1.67;;;1.00;;
8737;SDS011;4405;49.272;8.590;2024-02-04T12:53:50;0.90;;;0.90;;
8737;SDS011;4405;49.272;8.590;2024-02-04T12:56:16;1.00;;;0.90;;
8737;SDS011;4405;49.272;8.590;2024-02-04T12:58:44;1.07;;;0.90;;
8737;SDS011;4405;49.272;8.590;2024-02-04T13:01:10;0.90;;;0.90;;
8737;SDS011;4405;49.272;8.590;2024-02-04T13:03:36;0.80;;;0.80;;
8737;SDS011;4405;49.272;8.590;2024-02-04T13:06:01;0.80;;;0.80;;
8737;SDS011;4405;49.272;8.590;2024-02-04T13:08:28;0.80;;;0.80;;
8737;SDS011;4405;49.272;8.590;2024-02-04T13:10:54;1.60;;;0.90;;
8737;SDS011;4405;49.272;8.590;2024-02-04T13:13:21;1.03;;;1.03;;
8737;SDS011;4405;49.272;8.590;2024-02-04T13:15:51;0.87;;;0.80;;
8737;SDS011;4405;49.272;8.590;2024-02-04T13:18:18;1.00;;;0.97;;
8737;SDS011;4405;49.272;8.590;2024-02-04T13:20:44;0.83;;;0.73;;
8737;SDS011;4405;49.272;8.590;2024-02-04T13:23:11;0.80;;;0.80;;
8737;SDS011;4405;49.272;8.590;2024-02-04T13:25:37;0.90;;;0.90;;
8737;SDS011;4405;49.272;8.590;2024-02-04T13:28:04;0.70;;;0.70;;
8737;SDS011;4405;49.272;8.590;2024-02-04T13:30:30;0.90;;;0.90;;
8737;SDS011;4405;49.272;8.590;2024-02-04T13:32:58;1.30;;;0.80;;
8737;SDS011;4405;49.272;8.590;2024-02-04T13:35:26;0.90;;;0.90;;
8737;SDS011;4405;49.272;8.590;2024-02-04T13:37:52;0.80;;;0.80;;
8737;SDS011;4405;49.272;8.590;2024-02-04T13:40:20;1.10;;;1.10;;
8737;SDS011;4405;49.272;8.590;2024-02-04T13:42:47;0.90;;;0.90;;
8737;SDS011;4405;49.272;8.590;2024-02-04T13:45:13;0.90;;;0.90;;
8737;SDS011;4405;49.272;8.590;2024-02-04T13:47:39;1.07;;;0.93;;
8737;SDS011;4405;49.272;8.590;2024-02-04T13:50:08;0.90;;;0.90;;
8737;SDS011;4405;49.272;8.590;2024-02-04T13:52:34;0.90;;;0.90;;
8737;SDS011;4405;49.272;8.590;2024-02-04T13:55:00;0.83;;;0.83;;
8737;SDS011;4405;49.272;8.590;2024-02-04T13:57:27;0.80;;;0.80;;
8737;SDS011;4405;49.272;8.590;2024-02-04T13:59:53;0.80;;;0.80;;
8737;SDS011;4405;49.272;8.590;2024-02-04T14:02:20;0.90;;;0.90;;
8737;SDS011;4405;49.272;8.590;2024-02-04T14:04:46;0.87;;;0.87;;
8737;SDS011;4405;49.272;8.590;2024-02-04T14:07:13;0.90;;;0.90;;
8737;SDS011;4405;49.272;8.590;2024-02-04T14:09:40;0.90;;;0.90;;
8737;SDS011;4405;49.272;8.590;2024-02-04T14:12:06;0.90;;;0.90;;
8737;SDS011;4405;49.272;8.590;2024-02-04T14:14:33;1.20;;;1.10;;
8737;SDS011;4405;49.272;8.590;2024-02-04T14:16:59;1.10;;;1.00;;
8737;SDS011;4405;49.272;8.590;2024-02-04T14:19:25;0.83;;;0.83;;
8737;SDS011;4405;49.272;8.590;2024-02-04T14:21:51;1.30;;;1.30;;
8737;SDS011;4405;49.272;8.590;2024-02-04T14:24:19;1.13;;;1.10;;
8737;SDS011;4405;49.272;8.590;2024-02-04T14:26:45;1.00;;;1.00;;
8737;SDS011;4405;49.272;8.590;2024-02-04T14:29:11;5.63;;;1.40;;
8737;SDS011;4405;49.272;8.590;2024-02-04T14:31:37;3.00;;;2.80;;
8737;SDS011;4405;49.272;8.590;2024-02-04T14:34:04;1.07;;;1.07;;
8737;SDS011;4405;49.272;8.590;2024-02-04T14:36:30;1.87;;;1.77;;
8737;SDS011;4405;49.272;8.590;2024-02-04T14:38:57;1.70;;;1.00;;
8737;SDS011;4405;49.272;8.590;2024-02-04T14:41:24;1.47;;;1.47;;
8737;SDS011;4405;49.272;8.590;2024-02-04T14:43:51;1.43;;;1.30;;
8737;SDS011;4405;49.272;8.590;2024-02-04T14:46:17;1.57;;;1.20;;
8737;SDS011;4405;49.272;8.590;2024-02-04T14:48:43;1.40;;;0.90;;
8737;SDS011;4405;49.272;8.590;2024-02-04T14:51:09;1.20;;;1.20;;
8737;SDS011;4405;49.272;8.590;2024-02-04T14:53:36;1.10;;;1.10;;
8737;SDS011;4405;49.272;8.590;2024-02-04T14:56:02;1.23;;;1.13;;
8737;SDS011;4405;49.272;8.590;2024-02-04T14:58:30;1.10;;;1.10;;
8737;SDS011;4405;49.272;8.590;2024-02-04T15:00:56;1.53;;;1.23;;
8737;SDS011;4405;49.272;8.590;2024-02-04T15:03:22;1.07;;;1.07;;
8737;SDS011;4405;49.272;8.590;2024-02-04T15:05:49;2.20;;;1.20;;
8737;SDS011;4405;49.272;8.590;2024-02-04T15:08:15;1.30;;;1.30;;
8737;SDS011;4405;49.272;8.590;2024-02-04T15:10:41;1.20;;;1.20;;
8737;SDS011;4405;49.272;8.590;2024-02-04T15:13:07;1.30;;;1.20;;
8737;SDS011;4405;49.272;8.590;2024-02-04T15:15:35;1.23;;;1.23;;